aviador You're here:

KGUS Decoded Metar

PERU in IN, USA
Report Time2017-06-29 06:58:00
UTC Time2017-06-29 07:12:44
Flight Rules vfr VFR
Wind210° at 16 Gusting to 21 kt
W.Decomp.*RWY 23: 15.2 kt HW 4.9 kt LCW
W.Rank210° ranks 2
Current wind is above 210° avg. (9.5)
Visibility9999 m
Phenomena:N/A
Clouds:Overcast 130 Hf
Expected CloudBase > 2,800 ft AGL from Temp-Dew spread
Ceiling13,000 ft
Temp22°C (ISA +9)
Dew Point15°C (65% RH)
AAT17.9°C
QNH1012 hPa
Density Alt2,077 ft
Elevation810 ft
Report Wrong Elevation
Raw Report
KGUS 290658Z AUTO 21016G21KT 10SM OVC130 22/15 A2989 RMK AO2
SLP119 T02190149 $=

Extra information for KGUS:More info

Metar Taf Metar & Taf Last 4 Metars F.Rules Stats Wind Profile Meteogram Temp Stats Airport Information Weather charts Add Link Nearby VenuesMetar ALERT Operation Metar Decoded Social comments

AIRNAV info for KGUS